sensor_id;sensor_type;location;lat;lon;timestamp;pressure;altitude;pressure_sealevel;temperature;humidity
11124;BME280;5616;42.692;23.312;2023-10-19T00:00:32;95223.78;;;9.58;93.04
11124;BME280;5616;42.692;23.312;2023-10-19T00:03:02;95227.66;;;9.54;93.79
11124;BME280;5616;42.692;23.312;2023-10-19T00:05:28;95215.69;;;9.61;93.13
11124;BME280;5616;42.692;23.312;2023-10-19T00:07:55;95211.84;;;9.35;93.29
11124;BME280;5616;42.692;23.312;2023-10-19T00:10:27;95208.78;;;9.31;94.15
11124;BME280;5616;42.692;23.312;2023-10-19T00:12:56;95206.22;;;9.31;94.82
11124;BME280;5616;42.692;23.312;2023-10-19T00:15:26;95211.00;;;9.42;94.49
11124;BME280;5616;42.692;23.312;2023-10-19T00:17:55;95210.56;;;9.31;94.29
11124;BME280;5616;42.692;23.312;2023-10-19T00:20:24;95200.78;;;9.26;94.28
11124;BME280;5616;42.692;23.312;2023-10-19T00:23:01;95199.81;;;9.27;94.74
11124;BME280;5616;42.692;23.312;2023-10-19T00:25:32;95195.00;;;9.24;94.65
11124;BME280;5616;42.692;23.312;2023-10-19T00:28:00;95185.78;;;9.30;94.52
11124;BME280;5616;42.692;23.312;2023-10-19T00:30:29;95188.47;;;9.36;94.19
11124;BME280;5616;42.692;23.312;2023-10-19T00:33:00;95184.66;;;9.32;94.36
11124;BME280;5616;42.692;23.312;2023-10-19T00:35:29;95194.94;;;9.32;94.17
11124;BME280;5616;42.692;23.312;2023-10-19T00:38:02;95193.16;;;9.33;93.69
11124;BME280;5616;42.692;23.312;2023-10-19T00:40:49;95185.13;;;9.28;93.72
11124;BME280;5616;42.692;23.312;2023-10-19T00:43:26;95182.84;;;9.33;93.12
11124;BME280;5616;42.692;23.312;2023-10-19T00:45:54;95174.97;;;9.34;93.65
11124;BME280;5616;42.692;23.312;2023-10-19T00:48:22;95177.28;;;9.21;93.24
11124;BME280;5616;42.692;23.312;2023-10-19T00:50:52;95173.88;;;9.29;93.07
11124;BME280;5616;42.692;23.312;2023-10-19T00:53:33;95178.88;;;9.22;93.06
11124;BME280;5616;42.692;23.312;2023-10-19T00:56:02;95178.94;;;9.14;94.33
11124;BME280;5616;42.692;23.312;2023-10-19T00:58:32;95184.88;;;9.14;94.25
11124;BME280;5616;42.692;23.312;2023-10-19T01:01:02;95179.16;;;9.04;93.74
11124;BME280;5616;42.692;23.312;2023-10-19T01:03:31;95177.41;;;8.97;94.80
11124;BME280;5616;42.692;23.312;2023-10-19T01:06:03;95182.06;;;9.01;94.87
11124;BME280;5616;42.692;23.312;2023-10-19T01:08:36;95184.78;;;9.08;94.85
11124;BME280;5616;42.692;23.312;2023-10-19T01:11:10;95183.56;;;8.88;95.63
11124;BME280;5616;42.692;23.312;2023-10-19T01:13:40;95184.00;;;8.99;95.03
11124;BME280;5616;42.692;23.312;2023-10-19T01:16:13;95188.72;;;8.88;95.92
11124;BME280;5616;42.692;23.312;2023-10-19T01:18:47;95187.56;;;8.90;95.50
11124;BME280;5616;42.692;23.312;2023-10-19T01:21:14;95192.28;;;8.87;95.40
11124;BME280;5616;42.692;23.312;2023-10-19T01:23:47;95187.31;;;8.77;95.59
11124;BME280;5616;42.692;23.312;2023-10-19T01:26:14;95189.06;;;8.85;95.73
11124;BME280;5616;42.692;23.312;2023-10-19T01:28:47;95179.44;;;8.79;95.73
11124;BME280;5616;42.692;23.312;2023-10-19T01:31:18;95177.00;;;8.77;95.79
11124;BME280;5616;42.692;23.312;2023-10-19T01:33:56;95185.72;;;8.76;96.67
11124;BME280;5616;42.692;23.312;2023-10-19T01:36:24;95178.50;;;8.72;96.28
11124;BME280;5616;42.692;23.312;2023-10-19T01:38:52;95179.81;;;8.59;96.38
11124;BME280;5616;42.692;23.312;2023-10-19T01:41:21;95189.94;;;8.69;96.27
11124;BME280;5616;42.692;23.312;2023-10-19T01:43:49;95190.69;;;8.78;96.41
11124;BME280;5616;42.692;23.312;2023-10-19T01:46:19;95194.06;;;8.78;95.96
11124;BME280;5616;42.692;23.312;2023-10-19T01:48:51;95192.09;;;8.88;95.44
11124;BME280;5616;42.692;23.312;2023-10-19T01:51:21;95198.09;;;8.81;95.64
11124;BME280;5616;42.692;23.312;2023-10-19T01:53:49;95194.56;;;8.82;96.26
11124;BME280;5616;42.692;23.312;2023-10-19T01:56:18;95199.69;;;8.82;95.08
11124;BME280;5616;42.692;23.312;2023-10-19T01:58:45;95191.66;;;8.85;95.32
11124;BME280;5616;42.692;23.312;2023-10-19T02:01:13;95177.28;;;8.90;94.79
11124;BME280;5616;42.692;23.312;2023-10-19T02:03:44;95181.78;;;8.88;94.55
11124;BME280;5616;42.692;23.312;2023-10-19T02:06:13;95176.19;;;8.85;95.85
11124;BME280;5616;42.692;23.312;2023-10-19T02:08:48;95182.22;;;8.69;95.62
11124;BME280;5616;42.692;23.312;2023-10-19T02:11:15;95185.41;;;8.71;95.19
11124;BME280;5616;42.692;23.312;2023-10-19T02:13:46;95187.50;;;8.68;95.96
11124;BME280;5616;42.692;23.312;2023-10-19T02:16:13;95185.91;;;8.67;96.03
11124;BME280;5616;42.692;23.312;2023-10-19T02:18:42;95184.97;;;8.59;96.29
11124;BME280;5616;42.692;23.312;2023-10-19T02:21:08;95195.59;;;8.56;96.96
11124;BME280;5616;42.692;23.312;2023-10-19T02:23:38;95190.75;;;8.53;96.89
11124;BME280;5616;42.692;23.312;2023-10-19T02:26:04;95192.53;;;8.61;95.62
11124;BME280;5616;42.692;23.312;2023-10-19T02:28:31;95188.31;;;8.68;95.46
11124;BME280;5616;42.692;23.312;2023-10-19T02:30:59;95185.56;;;8.70;95.81
11124;BME280;5616;42.692;23.312;2023-10-19T02:33:37;95188.81;;;8.72;95.28
11124;BME280;5616;42.692;23.312;2023-10-19T02:36:04;95181.75;;;8.57;95.65
11124;BME280;5616;42.692;23.312;2023-10-19T02:38:39;95178.25;;;8.50;96.15
11124;BME280;5616;42.692;23.312;2023-10-19T02:41:05;95187.84;;;8.65;96.11
11124;BME280;5616;42.692;23.312;2023-10-19T02:43:31;95178.97;;;8.67;95.59
11124;BME280;5616;42.692;23.312;2023-10-19T02:45:59;95184.91;;;8.76;95.42
11124;BME280;5616;42.692;23.312;2023-10-19T02:48:28;95187.41;;;8.53;95.64
11124;BME280;5616;42.692;23.312;2023-10-19T02:50:54;95176.44;;;8.59;95.12
11124;BME280;5616;42.692;23.312;2023-10-19T02:53:21;95186.75;;;8.51;96.28
11124;BME280;5616;42.692;23.312;2023-10-19T02:55:48;95180.53;;;8.37;96.96
11124;BME280;5616;42.692;23.312;2023-10-19T02:58:17;95183.09;;;8.45;96.63
11124;BME280;5616;42.692;23.312;2023-10-19T03:00:42;95184.66;;;8.54;96.57
11124;BME280;5616;42.692;23.312;2023-10-19T03:03:12;95181.16;;;8.47;96.71
11124;BME280;5616;42.692;23.312;2023-10-19T03:05:42;95180.84;;;8.42;96.74
11124;BME280;5616;42.692;23.312;2023-10-19T03:08:09;95178.41;;;8.49;96.86
11124;BME280;5616;42.692;23.312;2023-10-19T03:10:35;95176.00;;;8.47;97.03
11124;BME280;5616;42.692;23.312;2023-10-19T03:13:07;95176.97;;;8.38;95.93
11124;BME280;5616;42.692;23.312;2023-10-19T03:15:33;95165.84;;;8.46;96.83
11124;BME280;5616;42.692;23.312;2023-10-19T03:18:00;95176.97;;;8.46;96.41
11124;BME280;5616;42.692;23.312;2023-10-19T03:20:29;95174.09;;;8.33;96.59
11124;BME280;5616;42.692;23.312;2023-10-19T03:22:59;95169.28;;;8.30;96.83
11124;BME280;5616;42.692;23.312;2023-10-19T03:25:27;95177.81;;;8.31;97.10
11124;BME280;5616;42.692;23.312;2023-10-19T03:28:12;95178.44;;;8.33;97.56
11124;BME280;5616;42.692;23.312;2023-10-19T03:30:42;95179.72;;;8.21;98.26
11124;BME280;5616;42.692;23.312;2023-10-19T03:33:08;95178.75;;;8.30;97.21
11124;BME280;5616;42.692;23.312;2023-10-19T03:35:39;95167.38;;;8.16;98.25
11124;BME280;5616;42.692;23.312;2023-10-19T03:38:07;95165.41;;;8.26;97.40
11124;BME280;5616;42.692;23.312;2023-10-19T03:40:40;95168.47;;;8.30;96.97
11124;BME280;5616;42.692;23.312;2023-10-19T03:43:11;95173.16;;;8.18;97.00
11124;BME280;5616;42.692;23.312;2023-10-19T03:45:43;95163.50;;;8.28;97.26
11124;BME280;5616;42.692;23.312;2023-10-19T03:48:17;95160.91;;;8.36;96.41
11124;BME280;5616;42.692;23.312;2023-10-19T03:50:51;95159.47;;;8.18;96.77
11124;BME280;5616;42.692;23.312;2023-10-19T03:53:19;95154.47;;;8.32;96.58
11124;BME280;5616;42.692;23.312;2023-10-19T03:55:47;95157.50;;;8.44;95.89
11124;BME280;5616;42.692;23.312;2023-10-19T03:58:15;95150.94;;;8.33;96.50
11124;BME280;5616;42.692;23.312;2023-10-19T04:00:42;95159.31;;;8.27;96.34
11124;BME280;5616;42.692;23.312;2023-10-19T04:03:10;95156.09;;;8.33;96.81
11124;BME280;5616;42.692;23.312;2023-10-19T04:05:37;95153.03;;;8.30;96.80
11124;BME280;5616;42.692;23.312;2023-10-19T04:08:08;95159.81;;;8.31;96.35
11124;BME280;5616;42.692;23.312;2023-10-19T04:10:40;95154.00;;;8.37;96.16
11124;BME280;5616;42.692;23.312;2023-10-19T04:13:12;95159.28;;;8.35;96.04
11124;BME280;5616;42.692;23.312;2023-10-19T04:15:39;95163.50;;;8.28;97.46
11124;BME280;5616;42.692;23.312;2023-10-19T04:18:07;95161.09;;;8.35;95.91
11124;BME280;5616;42.692;23.312;2023-10-19T04:20:37;95161.53;;;8.38;95.97
11124;BME280;5616;42.692;23.312;2023-10-19T04:23:23;95159.16;;;8.37;95.81
11124;BME280;5616;42.692;23.312;2023-10-19T04:25:53;95156.88;;;8.26;96.23
11124;BME280;5616;42.692;23.312;2023-10-19T04:28:22;95157.06;;;8.24;96.06
11124;BME280;5616;42.692;23.312;2023-10-19T04:30:56;95150.94;;;8.17;96.69
11124;BME280;5616;42.692;23.312;2023-10-19T04:33:29;95152.25;;;8.21;95.69
11124;BME280;5616;42.692;23.312;2023-10-19T04:35:55;95147.94;;;8.14;95.95
11124;BME280;5616;42.692;23.312;2023-10-19T04:38:27;95147.47;;;7.94;96.57
11124;BME280;5616;42.692;23.312;2023-10-19T04:41:03;95147.78;;;7.91;98.36
11124;BME280;5616;42.692;23.312;2023-10-19T04:43:32;95143.63;;;7.98;97.84
11124;BME280;5616;42.692;23.312;2023-10-19T04:46:00;95141.19;;;8.05;97.32
11124;BME280;5616;42.692;23.312;2023-10-19T04:48:33;95139.72;;;8.10;97.04
11124;BME280;5616;42.692;23.312;2023-10-19T04:51:01;95136.66;;;8.15;96.62
11124;BME280;5616;42.692;23.312;2023-10-19T04:53:31;95132.19;;;8.00;97.37
11124;BME280;5616;42.692;23.312;2023-10-19T04:55:57;95141.06;;;7.82;96.78
11124;BME280;5616;42.692;23.312;2023-10-19T04:58:25;95141.69;;;7.76;98.06
11124;BME280;5616;42.692;23.312;2023-10-19T05:00:52;95133.97;;;7.92;98.78
11124;BME280;5616;42.692;23.312;2023-10-19T05:03:19;95130.09;;;7.96;98.38
11124;BME280;5616;42.692;23.312;2023-10-19T05:05:46;95133.16;;;7.99;98.24
11124;BME280;5616;42.692;23.312;2023-10-19T05:08:13;95137.50;;;7.99;97.57
11124;BME280;5616;42.692;23.312;2023-10-19T05:10:41;95137.81;;;7.96;97.90
11124;BME280;5616;42.692;23.312;2023-10-19T05:13:08;95141.50;;;8.01;97.99
11124;BME280;5616;42.692;23.312;2023-10-19T05:15:35;95147.25;;;8.12;97.22
11124;BME280;5616;42.692;23.312;2023-10-19T05:18:02;95148.38;;;8.25;97.06
11124;BME280;5616;42.692;23.312;2023-10-19T05:20:30;95140.84;;;8.32;96.05
11124;BME280;5616;42.692;23.312;2023-10-19T05:22:56;95138.38;;;8.46;96.19
11124;BME280;5616;42.692;23.312;2023-10-19T05:25:26;95140.72;;;8.56;95.06
11124;BME280;5616;42.692;23.312;2023-10-19T05:27:54;95149.75;;;8.60;95.01
11124;BME280;5616;42.692;23.312;2023-10-19T05:30:21;95143.59;;;8.69;94.77
11124;BME280;5616;42.692;23.312;2023-10-19T05:32:48;95156.09;;;8.80;94.46
11124;BME280;5616;42.692;23.312;2023-10-19T05:35:16;95154.09;;;8.90;93.35
11124;BME280;5616;42.692;23.312;2023-10-19T05:37:49;95164.22;;;9.00;92.87
11124;BME280;5616;42.692;23.312;2023-10-19T05:40:15;95160.59;;;9.09;92.18
11124;BME280;5616;42.692;23.312;2023-10-19T05:42:43;95166.84;;;9.14;92.88
11124;BME280;5616;42.692;23.312;2023-10-19T05:45:13;95162.34;;;9.16;92.33
11124;BME280;5616;42.692;23.312;2023-10-19T05:47:42;95162.28;;;9.24;92.13
11124;BME280;5616;42.692;23.312;2023-10-19T05:50:10;95165.31;;;9.28;92.29
11124;BME280;5616;42.692;23.312;2023-10-19T05:52:40;95168.38;;;9.32;91.48
11124;BME280;5616;42.692;23.312;2023-10-19T05:55:08;95163.78;;;9.42;91.49
11124;BME280;5616;42.692;23.312;2023-10-19T05:57:36;95163.56;;;9.51;90.30
11124;BME280;5616;42.692;23.312;2023-10-19T06:00:07;95168.78;;;9.66;90.00
11124;BME280;5616;42.692;23.312;2023-10-19T06:02:42;95162.50;;;9.83;89.75
11124;BME280;5616;42.692;23.312;2023-10-19T06:05:10;95169.31;;;9.99;89.45
11124;BME280;5616;42.692;23.312;2023-10-19T06:07:37;95168.56;;;10.13;88.31
11124;BME280;5616;42.692;23.312;2023-10-19T06:10:05;95170.28;;;10.20;88.32
11124;BME280;5616;42.692;23.312;2023-10-19T06:12:32;95163.88;;;10.31;87.97
11124;BME280;5616;42.692;23.312;2023-10-19T06:15:00;95163.19;;;10.37;87.86
11124;BME280;5616;42.692;23.312;2023-10-19T06:17:27;95169.22;;;10.29;88.58
11124;BME280;5616;42.692;23.312;2023-10-19T06:19:55;95169.50;;;10.49;87.79
11124;BME280;5616;42.692;23.312;2023-10-19T06:22:22;95167.53;;;10.66;87.83
11124;BME280;5616;42.692;23.312;2023-10-19T06:24:49;95155.69;;;10.71;85.92
11124;BME280;5616;42.692;23.312;2023-10-19T06:27:16;95160.94;;;10.78;85.23
11124;BME280;5616;42.692;23.312;2023-10-19T06:29:42;95155.88;;;10.84;85.09
11124;BME280;5616;42.692;23.312;2023-10-19T06:32:09;95154.09;;;10.85;85.23
11124;BME280;5616;42.692;23.312;2023-10-19T06:34:38;95161.91;;;10.91;84.17
11124;BME280;5616;42.692;23.312;2023-10-19T06:37:07;95161.19;;;10.97;83.37
11124;BME280;5616;42.692;23.312;2023-10-19T06:39:36;95163.06;;;11.03;82.49
11124;BME280;5616;42.692;23.312;2023-10-19T06:42:07;95170.06;;;11.10;81.92
11124;BME280;5616;42.692;23.312;2023-10-19T06:44:40;95171.56;;;11.19;82.27
11124;BME280;5616;42.692;23.312;2023-10-19T06:47:08;95169.50;;;11.29;81.76
11124;BME280;5616;42.692;23.312;2023-10-19T06:49:35;95176.63;;;11.27;81.91
11124;BME280;5616;42.692;23.312;2023-10-19T06:52:03;95169.28;;;11.45;81.81
11124;BME280;5616;42.692;23.312;2023-10-19T06:54:32;95166.34;;;11.69;80.54
11124;BME280;5616;42.692;23.312;2023-10-19T06:56:59;95152.66;;;11.75;78.83
11124;BME280;5616;42.692;23.312;2023-10-19T06:59:28;95151.34;;;11.86;78.96
11124;BME280;5616;42.692;23.312;2023-10-19T07:01:58;95144.13;;;12.02;77.99
11124;BME280;5616;42.692;23.312;2023-10-19T07:04:26;95146.38;;;12.12;77.42
11124;BME280;5616;42.692;23.312;2023-10-19T07:06:53;95142.31;;;12.24;77.64
11124;BME280;5616;42.692;23.312;2023-10-19T07:09:20;95140.97;;;12.07;78.34
11124;BME280;5616;42.692;23.312;2023-10-19T07:11:50;95143.06;;;12.18;77.84
11124;BME280;5616;42.692;23.312;2023-10-19T07:14:19;95158.78;;;12.16;77.32
11124;BME280;5616;42.692;23.312;2023-10-19T07:16:48;95156.06;;;12.24;77.98
11124;BME280;5616;42.692;23.312;2023-10-19T07:19:15;95147.59;;;12.44;78.34
11124;BME280;5616;42.692;23.312;2023-10-19T07:21:42;95144.84;;;12.45;78.31
11124;BME280;5616;42.692;23.312;2023-10-19T07:24:14;95143.56;;;12.35;77.53
11124;BME280;5616;42.692;23.312;2023-10-19T07:26:44;95144.41;;;12.42;77.72
11124;BME280;5616;42.692;23.312;2023-10-19T07:29:20;95150.47;;;12.55;77.91
11124;BME280;5616;42.692;23.312;2023-10-19T07:31:47;95147.94;;;12.68;76.21
11124;BME280;5616;42.692;23.312;2023-10-19T07:34:14;95148.69;;;12.62;76.53
11124;BME280;5616;42.692;23.312;2023-10-19T07:36:41;95157.13;;;12.77;76.67
11124;BME280;5616;42.692;23.312;2023-10-19T07:39:09;95151.50;;;12.61;76.97
11124;BME280;5616;42.692;23.312;2023-10-19T07:41:44;95155.22;;;12.52;77.69
11124;BME280;5616;42.692;23.312;2023-10-19T07:44:12;95155.81;;;12.54;78.43
11124;BME280;5616;42.692;23.312;2023-10-19T07:46:40;95157.94;;;12.78;77.52
11124;BME280;5616;42.692;23.312;2023-10-19T07:49:08;95158.22;;;12.96;75.36
11124;BME280;5616;42.692;23.312;2023-10-19T07:51:44;95165.31;;;13.15;75.31
11124;BME280;5616;42.692;23.312;2023-10-19T07:54:11;95155.75;;;13.22;75.90
11124;BME280;5616;42.692;23.312;2023-10-19T07:56:38;95156.63;;;13.49;75.67
11124;BME280;5616;42.692;23.312;2023-10-19T07:59:04;95159.03;;;13.44;74.66
11124;BME280;5616;42.692;23.312;2023-10-19T08:01:32;95155.88;;;13.62;74.24
11124;BME280;5616;42.692;23.312;2023-10-19T08:04:00;95160.66;;;13.58;74.05
11124;BME280;5616;42.692;23.312;2023-10-19T08:06:27;95163.03;;;13.60;73.15
11124;BME280;5616;42.692;23.312;2023-10-19T08:08:54;95158.66;;;13.54;73.14
11124;BME280;5616;42.692;23.312;2023-10-19T08:11:21;95164.41;;;13.49;73.40
11124;BME280;5616;42.692;23.312;2023-10-19T08:13:48;95153.66;;;13.45;74.14
11124;BME280;5616;42.692;23.312;2023-10-19T08:16:15;95150.06;;;13.53;73.64
11124;BME280;5616;42.692;23.312;2023-10-19T08:18:43;95148.06;;;13.55;73.18
11124;BME280;5616;42.692;23.312;2023-10-19T08:21:11;95145.66;;;13.47;73.96
11124;BME280;5616;42.692;23.312;2023-10-19T08:23:38;95149.06;;;13.54;73.27
11124;BME280;5616;42.692;23.312;2023-10-19T08:26:06;95141.88;;;13.49;73.16
11124;BME280;5616;42.692;23.312;2023-10-19T08:28:32;95150.47;;;13.57;73.43
11124;BME280;5616;42.692;23.312;2023-10-19T08:30:59;95160.66;;;13.78;73.22
11124;BME280;5616;42.692;23.312;2023-10-19T08:33:27;95149.91;;;13.94;73.05
11124;BME280;5616;42.692;23.312;2023-10-19T08:35:55;95148.53;;;14.11;72.26
11124;BME280;5616;42.692;23.312;2023-10-19T08:38:24;95144.53;;;14.22;70.25
11124;BME280;5616;42.692;23.312;2023-10-19T08:40:51;95148.50;;;14.24;70.46
11124;BME280;5616;42.692;23.312;2023-10-19T08:43:18;95153.91;;;14.36;70.00
11124;BME280;5616;42.692;23.312;2023-10-19T08:45:47;95156.69;;;14.47;69.99
11124;BME280;5616;42.692;23.312;2023-10-19T08:48:14;95145.69;;;14.52;69.41
11124;BME280;5616;42.692;23.312;2023-10-19T08:50:41;95143.91;;;14.39;69.39
11124;BME280;5616;42.692;23.312;2023-10-19T08:53:09;95133.38;;;15.36;87.68
11124;BME280;5616;42.692;23.312;2023-10-19T08:55:40;95143.53;;;15.06;72.61
11124;BME280;5616;42.692;23.312;2023-10-19T08:58:07;95144.81;;;14.91;68.66
11124;BME280;5616;42.692;23.312;2023-10-19T09:00:46;95146.56;;;14.97;68.37
11124;BME280;5616;42.692;23.312;2023-10-19T09:03:19;95146.50;;;15.10;67.75
11124;BME280;5616;42.692;23.312;2023-10-19T09:05:47;95137.50;;;15.12;67.35
11124;BME280;5616;42.692;23.312;2023-10-19T09:08:15;95134.03;;;15.25;67.16
11124;BME280;5616;42.692;23.312;2023-10-19T09:10:45;95130.44;;;15.26;66.72
11124;BME280;5616;42.692;23.312;2023-10-19T09:13:11;95118.75;;;15.42;66.81
11124;BME280;5616;42.692;23.312;2023-10-19T09:15:41;95114.44;;;15.60;66.42
11124;BME280;5616;42.692;23.312;2023-10-19T09:18:15;95114.19;;;15.68;65.45
11124;BME280;5616;42.692;23.312;2023-10-19T09:20:42;95103.38;;;15.71;64.78
11124;BME280;5616;42.692;23.312;2023-10-19T09:23:21;95103.66;;;15.88;65.41
11124;BME280;5616;42.692;23.312;2023-10-19T09:25:51;95101.44;;;16.10;65.04
11124;BME280;5616;42.692;23.312;2023-10-19T09:28:19;95102.06;;;16.30;63.59
11124;BME280;5616;42.692;23.312;2023-10-19T09:30:46;95094.53;;;16.22;64.10
11124;BME280;5616;42.692;23.312;2023-10-19T09:33:13;95091.22;;;16.33;63.43
11124;BME280;5616;42.692;23.312;2023-10-19T09:35:43;95082.31;;;16.40;63.09
11124;BME280;5616;42.692;23.312;2023-10-19T09:38:11;95072.69;;;16.41;63.43
11124;BME280;5616;42.692;23.312;2023-10-19T09:40:39;95081.81;;;16.50;64.81
11124;BME280;5616;42.692;23.312;2023-10-19T09:43:14;95076.03;;;16.84;64.03
11124;BME280;5616;42.692;23.312;2023-10-19T09:45:45;95074.59;;;16.70;61.90
11124;BME280;5616;42.692;23.312;2023-10-19T09:48:18;95070.81;;;16.48;62.98
11124;BME280;5616;42.692;23.312;2023-10-19T09:50:50;95070.69;;;16.61;62.91
11124;BME280;5616;42.692;23.312;2023-10-19T09:53:21;95068.97;;;16.55;62.88
11124;BME280;5616;42.692;23.312;2023-10-19T09:55:49;95067.56;;;16.71;62.39
11124;BME280;5616;42.692;23.312;2023-10-19T09:58:20;95067.13;;;16.92;62.85
11124;BME280;5616;42.692;23.312;2023-10-19T10:00:49;95063.41;;;17.29;62.58
11124;BME280;5616;42.692;23.312;2023-10-19T10:03:45;95057.59;;;17.57;60.98
11124;BME280;5616;42.692;23.312;2023-10-19T10:06:12;95058.06;;;17.54;59.57
11124;BME280;5616;42.692;23.312;2023-10-19T10:08:41;95044.25;;;17.35;60.52
11124;BME280;5616;42.692;23.312;2023-10-19T10:11:29;95053.28;;;17.21;62.28
11124;BME280;5616;42.692;23.312;2023-10-19T10:13:58;95037.91;;;17.01;63.05
11124;BME280;5616;42.692;23.312;2023-10-19T10:16:26;95043.41;;;17.11;62.12
11124;BME280;5616;42.692;23.312;2023-10-19T10:18:57;95040.28;;;17.33;61.73
11124;BME280;5616;42.692;23.312;2023-10-19T10:21:26;95045.59;;;17.56;61.10
11124;BME280;5616;42.692;23.312;2023-10-19T10:23:55;95028.22;;;17.73;60.45
11124;BME280;5616;42.692;23.312;2023-10-19T10:26:25;95029.13;;;17.79;59.34
11124;BME280;5616;42.692;23.312;2023-10-19T10:29:13;95022.78;;;17.63;60.21
11124;BME280;5616;42.692;23.312;2023-10-19T10:31:46;95015.75;;;17.75;60.83
11124;BME280;5616;42.692;23.312;2023-10-19T10:34:43;95010.53;;;17.75;59.55
11124;BME280;5616;42.692;23.312;2023-10-19T10:37:11;95001.19;;;17.56;60.12
11124;BME280;5616;42.692;23.312;2023-10-19T10:39:39;94999.44;;;17.38;61.63
11124;BME280;5616;42.692;23.312;2023-10-19T10:42:07;94991.84;;;17.48;61.31
11124;BME280;5616;42.692;23.312;2023-10-19T10:44:37;94981.56;;;17.65;60.53
11124;BME280;5616;42.692;23.312;2023-10-19T10:47:06;94962.28;;;17.78;59.35
11124;BME280;5616;42.692;23.312;2023-10-19T10:49:45;94971.59;;;17.85;59.50
11124;BME280;5616;42.692;23.312;2023-10-19T10:52:23;94970.66;;;17.91;59.70
11124;BME280;5616;42.692;23.312;2023-10-19T10:54:50;94959.19;;;18.04;59.32
11124;BME280;5616;42.692;23.312;2023-10-19T10:57:17;94958.34;;;18.15;60.42
11124;BME280;5616;42.692;23.312;2023-10-19T10:59:46;94959.75;;;18.06;58.47
11124;BME280;5616;42.692;23.312;2023-10-19T11:02:17;94943.97;;;18.01;58.27
11124;BME280;5616;42.692;23.312;2023-10-19T11:04:46;94942.00;;;18.08;58.56
11124;BME280;5616;42.692;23.312;2023-10-19T11:07:18;94942.09;;;18.24;59.53
11124;BME280;5616;42.692;23.312;2023-10-19T11:09:45;94929.13;;;18.29;58.98
11124;BME280;5616;42.692;23.312;2023-10-19T11:12:13;94926.00;;;18.44;57.22
11124;BME280;5616;42.692;23.312;2023-10-19T11:14:52;94928.19;;;18.47;58.01
11124;BME280;5616;42.692;23.312;2023-10-19T11:17:20;94924.19;;;18.45;57.60
11124;BME280;5616;42.692;23.312;2023-10-19T11:19:53;94923.03;;;18.52;57.76
11124;BME280;5616;42.692;23.312;2023-10-19T11:22:21;94917.38;;;18.44;57.96
11124;BME280;5616;42.692;23.312;2023-10-19T11:24:50;94918.88;;;18.40;58.28
11124;BME280;5616;42.692;23.312;2023-10-19T11:27:22;94910.03;;;18.29;58.15
11124;BME280;5616;42.692;23.312;2023-10-19T11:29:57;94908.78;;;18.31;58.67
11124;BME280;5616;42.692;23.312;2023-10-19T11:32:24;94900.94;;;18.31;58.82
11124;BME280;5616;42.692;23.312;2023-10-19T11:34:52;94890.72;;;18.30;58.86
11124;BME280;5616;42.692;23.312;2023-10-19T11:37:19;94892.47;;;18.41;58.66
11124;BME280;5616;42.692;23.312;2023-10-19T11:39:46;94887.59;;;18.45;58.77
11124;BME280;5616;42.692;23.312;2023-10-19T11:42:15;94881.00;;;18.54;59.57
11124;BME280;5616;42.692;23.312;2023-10-19T11:44:43;94884.81;;;18.63;58.20
11124;BME280;5616;42.692;23.312;2023-10-19T11:47:11;94877.59;;;18.42;58.67
11124;BME280;5616;42.692;23.312;2023-10-19T11:49:38;94878.16;;;18.44;58.40
11124;BME280;5616;42.692;23.312;2023-10-19T11:52:06;94888.59;;;18.55;58.56
11124;BME280;5616;42.692;23.312;2023-10-19T11:54:33;94874.25;;;18.58;58.20
11124;BME280;5616;42.692;23.312;2023-10-19T11:56:59;94870.63;;;18.59;58.46
11124;BME280;5616;42.692;23.312;2023-10-19T11:59:27;94880.69;;;18.67;58.05
11124;BME280;5616;42.692;23.312;2023-10-19T12:01:54;94865.66;;;18.74;57.51
11124;BME280;5616;42.692;23.312;2023-10-19T12:04:23;94873.50;;;18.74;57.54
11124;BME280;5616;42.692;23.312;2023-10-19T12:06:51;94869.94;;;18.80;57.82
11124;BME280;5616;42.692;23.312;2023-10-19T12:09:18;94864.31;;;18.88;58.37
11124;BME280;5616;42.692;23.312;2023-10-19T12:11:49;94859.97;;;18.93;58.08
11124;BME280;5616;42.692;23.312;2023-10-19T12:14:18;94862.19;;;19.02;58.35
11124;BME280;5616;42.692;23.312;2023-10-19T12:16:46;94851.56;;;19.08;57.83
11124;BME280;5616;42.692;23.312;2023-10-19T12:19:13;94846.00;;;19.05;56.98
11124;BME280;5616;42.692;23.312;2023-10-19T12:21:44;94842.19;;;19.12;57.52
11124;BME280;5616;42.692;23.312;2023-10-19T12:24:11;94847.19;;;19.14;57.37
11124;BME280;5616;42.692;23.312;2023-10-19T12:26:37;94846.25;;;19.20;56.75
11124;BME280;5616;42.692;23.312;2023-10-19T12:29:05;94844.31;;;19.15;57.08
11124;BME280;5616;42.692;23.312;2023-10-19T12:31:35;94834.78;;;19.26;56.20
11124;BME280;5616;42.692;23.312;2023-10-19T12:34:05;94828.53;;;19.27;56.65
11124;BME280;5616;42.692;23.312;2023-10-19T12:36:33;94835.19;;;19.34;57.14
11124;BME280;5616;42.692;23.312;2023-10-19T12:39:02;94827.88;;;19.36;57.25
11124;BME280;5616;42.692;23.312;2023-10-19T12:41:31;94826.63;;;19.39;55.95
11124;BME280;5616;42.692;23.312;2023-10-19T12:43:58;94822.03;;;19.46;55.88
11124;BME280;5616;42.692;23.312;2023-10-19T12:46:27;94821.78;;;19.47;55.98
11124;BME280;5616;42.692;23.312;2023-10-19T12:48:55;94815.13;;;19.40;56.48
11124;BME280;5616;42.692;23.312;2023-10-19T12:51:23;94815.94;;;19.40;56.12
11124;BME280;5616;42.692;23.312;2023-10-19T12:53:50;94819.78;;;19.54;56.12
11124;BME280;5616;42.692;23.312;2023-10-19T12:56:19;94812.53;;;19.62;55.88
11124;BME280;5616;42.692;23.312;2023-10-19T12:58:46;94823.38;;;19.70;55.52
11124;BME280;5616;42.692;23.312;2023-10-19T13:01:13;94810.59;;;19.74;55.55
11124;BME280;5616;42.692;23.312;2023-10-19T13:03:45;94807.22;;;19.78;56.14
11124;BME280;5616;42.692;23.312;2023-10-19T13:06:12;94810.38;;;19.75;55.35
11124;BME280;5616;42.692;23.312;2023-10-19T13:08:39;94811.75;;;19.83;54.83
11124;BME280;5616;42.692;23.312;2023-10-19T13:11:06;94804.13;;;19.81;55.44
11124;BME280;5616;42.692;23.312;2023-10-19T13:13:35;94797.81;;;19.77;55.44
11124;BME280;5616;42.692;23.312;2023-10-19T13:16:04;94802.19;;;19.72;54.82